createdAt,value
2022-07-25T00:00:56.397Z,99.90
2022-07-25T00:03:25.251Z,99.90
2022-07-25T00:05:58.476Z,99.90
2022-07-25T00:08:27.474Z,99.90
2022-07-25T00:11:00.205Z,99.90
2022-07-25T00:13:29.143Z,99.90
2022-07-25T00:15:57.934Z,99.90
2022-07-25T00:18:31.291Z,99.90
2022-07-25T00:21:02.495Z,99.90
2022-07-25T00:23:43.267Z,99.90
2022-07-25T00:26:16.885Z,99.90
2022-07-25T00:28:48.001Z,99.90
2022-07-25T00:31:17.256Z,99.90
2022-07-25T00:33:46.137Z,99.90
2022-07-25T00:36:16.666Z,99.90
2022-07-25T00:38:47.593Z,99.90
2022-07-25T00:41:18.175Z,99.90
2022-07-25T00:43:49.617Z,99.90
2022-07-25T00:46:21.842Z,99.90
2022-07-25T00:48:54.313Z,99.90
2022-07-25T00:51:28.968Z,99.90
2022-07-25T00:53:59.899Z,99.90
2022-07-25T00:56:33.201Z,99.90
2022-07-25T00:59:04.543Z,99.90
2022-07-25T01:01:54.917Z,99.90
2022-07-25T01:04:24.447Z,99.90
2022-07-25T01:06:57.956Z,99.90
2022-07-25T01:09:28.882Z,99.90
2022-07-25T01:12:06.408Z,99.90
2022-07-25T01:14:36.796Z,99.90
2022-07-25T01:17:05.930Z,99.90
2022-07-25T01:19:34.563Z,99.90
2022-07-25T01:22:12.528Z,99.90
2022-07-25T01:24:43.729Z,99.90
2022-07-25T01:27:17.368Z,99.90
2022-07-25T01:29:46.334Z,99.90
2022-07-25T01:32:15.201Z,99.90
2022-07-25T01:34:48.807Z,99.90
2022-07-25T01:37:19.088Z,99.90
2022-07-25T01:39:47.713Z,99.90
2022-07-25T01:42:19.382Z,99.90
2022-07-25T01:44:48.162Z,99.90
2022-07-25T01:47:20.794Z,99.90
2022-07-25T01:49:49.372Z,99.90
2022-07-25T01:52:22.449Z,99.90
2022-07-25T01:54:51.103Z,99.90
2022-07-25T01:57:23.196Z,99.90
2022-07-25T02:00:02.141Z,99.90
2022-07-25T02:02:36.624Z,99.90
2022-07-25T02:05:06.005Z,99.90
2022-07-25T02:07:36.266Z,99.90
2022-07-25T02:10:06.281Z,99.90
2022-07-25T02:12:37.330Z,99.90
2022-07-25T02:15:06.863Z,99.90
2022-07-25T02:17:35.555Z,99.90
2022-07-25T02:20:04.519Z,99.90
2022-07-25T02:22:33.557Z,99.90
2022-07-25T02:25:06.528Z,99.90
2022-07-25T02:27:37.419Z,99.90
2022-07-25T02:30:06.976Z,99.90
2022-07-25T02:32:35.864Z,99.90
2022-07-25T02:35:04.784Z,99.90
2022-07-25T02:37:42.202Z,99.90
2022-07-25T02:40:13.449Z,99.90
2022-07-25T02:42:46.424Z,99.90
2022-07-25T02:45:15.315Z,99.90
2022-07-25T02:47:43.990Z,99.90
2022-07-25T02:50:14.894Z,99.90
2022-07-25T02:52:44.545Z,99.90
2022-07-25T02:55:17.541Z,99.90
2022-07-25T02:57:46.207Z,99.90
2022-07-25T03:00:16.906Z,99.90
2022-07-25T03:02:48.842Z,99.90
2022-07-25T03:05:20.475Z,99.90
2022-07-25T03:07:50.784Z,99.90
2022-07-25T03:10:21.176Z,99.90
2022-07-25T03:12:52.665Z,99.90
2022-07-25T03:15:21.445Z,99.90
2022-07-25T03:17:50.479Z,99.90
2022-07-25T03:20:19.833Z,99.90
2022-07-25T03:22:51.053Z,99.90
2022-07-25T03:25:24.794Z,99.90
2022-07-25T03:27:53.543Z,99.90
2022-07-25T03:30:24.008Z,99.90
2022-07-25T03:32:52.791Z,99.90
2022-07-25T03:35:21.585Z,99.90
2022-07-25T03:37:50.193Z,99.90
2022-07-25T03:40:24.403Z,99.90
2022-07-25T03:42:55.791Z,99.90
2022-07-25T03:45:24.968Z,99.90
2022-07-25T03:47:58.472Z,99.90
2022-07-25T03:50:29.339Z,99.90
2022-07-25T03:53:01.689Z,99.90
2022-07-25T03:55:32.459Z,99.90
2022-07-25T03:58:01.389Z,99.90
2022-07-25T04:00:30.354Z,99.90
2022-07-25T04:02:59.631Z,99.90
2022-07-25T04:05:33.325Z,99.90
2022-07-25T04:08:05.749Z,99.90
2022-07-25T04:10:35.895Z,99.90
2022-07-25T04:13:04.923Z,99.90
2022-07-25T04:15:33.673Z,99.90
2022-07-25T04:18:04.012Z,99.90
2022-07-25T04:20:37.656Z,99.90
2022-07-25T04:23:06.586Z,99.90
2022-07-25T04:25:37.733Z,99.90
2022-07-25T04:28:06.690Z,99.90
2022-07-25T04:30:35.564Z,99.90
2022-07-25T04:33:04.514Z,99.90
2022-07-25T04:35:33.355Z,99.90
2022-07-25T04:38:08.856Z,99.90
2022-07-25T04:40:42.928Z,99.90
2022-07-25T04:43:11.985Z,99.90
2022-07-25T04:45:40.808Z,99.90
2022-07-25T04:48:12.138Z,99.90
2022-07-25T04:50:43.055Z,99.90
2022-07-25T04:53:14.442Z,99.90
2022-07-25T04:55:44.622Z,99.90
2022-07-25T04:58:13.425Z,99.90
2022-07-25T05:00:42.292Z,99.90
2022-07-25T05:03:13.995Z,99.90
2022-07-25T05:05:45.427Z,99.90
2022-07-25T05:08:18.296Z,99.90
2022-07-25T05:10:48.547Z,99.90
2022-07-25T05:13:18.210Z,99.90
2022-07-25T05:15:49.362Z,99.90
2022-07-25T05:18:19.799Z,99.90
2022-07-25T05:20:48.556Z,99.90
2022-07-25T05:23:17.486Z,99.90
2022-07-25T05:25:53.158Z,99.90
2022-07-25T05:28:21.863Z,99.90
2022-07-25T05:30:50.675Z,99.90
2022-07-25T05:33:26.726Z,99.90
2022-07-25T05:35:58.456Z,99.90
2022-07-25T05:38:30.417Z,99.90
2022-07-25T05:41:02.534Z,99.90
2022-07-25T05:43:36.809Z,99.90
2022-07-25T05:46:06.691Z,99.90
2022-07-25T05:48:35.424Z,99.90
2022-07-25T05:51:09.537Z,99.90
2022-07-25T05:53:38.741Z,99.90
2022-07-25T05:56:20.644Z,99.90
2022-07-25T05:58:49.427Z,99.90
2022-07-25T06:01:19.346Z,99.90
2022-07-25T06:03:47.949Z,99.90
2022-07-25T06:06:20.243Z,99.90
2022-07-25T06:08:49.147Z,99.90
2022-07-25T06:11:22.138Z,99.90
2022-07-25T06:13:52.465Z,99.90
2022-07-25T06:16:24.307Z,99.90
2022-07-25T06:18:56.034Z,99.90
2022-07-25T06:21:29.093Z,99.90
2022-07-25T06:23:57.749Z,99.90
2022-07-25T06:26:27.926Z,99.90
2022-07-25T06:28:56.651Z,99.90
2022-07-25T06:31:25.431Z,99.90
2022-07-25T06:33:54.787Z,99.90
2022-07-25T06:36:23.597Z,99.90
2022-07-25T06:39:01.681Z,99.90
2022-07-25T06:41:32.188Z,99.90
2022-07-25T06:44:01.099Z,99.90
2022-07-25T06:46:33.071Z,99.90
2022-07-25T06:49:02.460Z,99.90
2022-07-25T06:51:33.697Z,99.90
2022-07-25T06:54:02.782Z,99.90
2022-07-25T06:56:33.249Z,99.90
2022-07-25T06:59:07.399Z,99.90
2022-07-25T07:01:37.886Z,99.90
2022-07-25T07:04:07.662Z,99.90
2022-07-25T07:06:37.843Z,99.90
2022-07-25T07:09:08.185Z,99.90
2022-07-25T07:11:45.404Z,99.90
2022-07-25T07:14:14.271Z,99.90
2022-07-25T07:16:46.583Z,99.90
2022-07-25T07:19:25.127Z,99.90
2022-07-25T07:21:57.229Z,99.90
2022-07-25T07:24:29.144Z,99.90
2022-07-25T07:26:59.370Z,99.90
2022-07-25T07:29:30.290Z,99.90
2022-07-25T07:31:59.431Z,99.90
2022-07-25T07:34:31.243Z,99.90
2022-07-25T07:37:00.874Z,99.90
2022-07-25T07:39:29.900Z,99.90
2022-07-25T07:42:03.924Z,99.90
2022-07-25T07:44:35.923Z,99.90
2022-07-25T07:47:07.999Z,99.90
2022-07-25T07:49:50.193Z,99.90
2022-07-25T07:52:19.457Z,99.90
2022-07-25T07:55:08.378Z,99.90
2022-07-25T07:57:39.543Z,99.90
2022-07-25T08:00:13.505Z,99.90
2022-07-25T08:02:50.196Z,99.90
2022-07-25T08:05:30.919Z,99.90
2022-07-25T08:08:03.015Z,99.90
2022-07-25T08:10:37.276Z,99.90
2022-07-25T08:13:15.513Z,99.90
2022-07-25T08:15:52.477Z,99.90
2022-07-25T08:18:21.993Z,99.90
2022-07-25T08:20:52.160Z,99.90
2022-07-25T08:23:26.104Z,99.90
2022-07-25T08:26:11.079Z,99.90
2022-07-25T08:28:42.023Z,99.90
2022-07-25T08:31:14.335Z,99.90
2022-07-25T08:33:50.755Z,99.90
2022-07-25T08:36:22.465Z,99.90
2022-07-25T08:38:54.767Z,99.90
2022-07-25T08:41:25.137Z,99.90
2022-07-25T08:43:59.183Z,99.90
2022-07-25T08:46:32.657Z,99.90
2022-07-25T08:49:09.204Z,99.90
2022-07-25T08:51:38.772Z,99.90
2022-07-25T08:54:13.191Z,99.90
2022-07-25T08:56:44.969Z,99.90
2022-07-25T08:59:17.968Z,99.90
2022-07-25T09:01:54.749Z,99.90
2022-07-25T09:04:31.083Z,99.90
2022-07-25T09:07:08.542Z,99.90
2022-07-25T09:09:40.234Z,99.90
2022-07-25T09:12:14.087Z,99.90
2022-07-25T09:14:49.878Z,99.90
2022-07-25T09:17:22.465Z,99.90
2022-07-25T09:19:58.189Z,99.90
2022-07-25T09:22:28.261Z,99.90
2022-07-25T09:24:57.439Z,99.90
2022-07-25T09:27:40.388Z,99.90
2022-07-25T09:30:18.542Z,99.90
2022-07-25T09:32:50.450Z,99.90
2022-07-25T09:35:22.789Z,99.90
2022-07-25T09:37:57.415Z,99.90
2022-07-25T09:40:30.059Z,99.90
2022-07-25T09:43:04.252Z,99.90
2022-07-25T09:45:37.214Z,99.90
2022-07-25T09:48:07.154Z,99.90
2022-07-25T09:50:38.505Z,99.90
2022-07-25T09:53:11.934Z,99.90
2022-07-25T09:55:41.935Z,99.90
2022-07-25T09:58:10.686Z,99.90
2022-07-25T10:00:43.566Z,99.90
2022-07-25T10:03:36.691Z,99.90
2022-07-25T10:06:16.848Z,99.90
2022-07-25T10:08:46.339Z,99.90
2022-07-25T10:11:46.310Z,99.90
2022-07-25T10:14:16.260Z,99.90
2022-07-25T10:16:51.980Z,99.90
2022-07-25T10:19:40.269Z,99.90
2022-07-25T10:22:14.714Z,99.90
2022-07-25T10:24:49.738Z,99.90
2022-07-25T10:27:29.105Z,99.90
2022-07-25T10:30:00.696Z,99.90
2022-07-25T10:32:39.545Z,99.90
2022-07-25T10:35:20.663Z,99.90
2022-07-25T10:37:52.971Z,99.90
2022-07-25T10:40:37.583Z,99.90
2022-07-25T10:43:11.178Z,99.90
2022-07-25T10:45:44.984Z,99.90
2022-07-25T10:48:24.376Z,99.90
2022-07-25T10:51:00.549Z,99.90
2022-07-25T10:53:38.686Z,99.90
2022-07-25T10:56:15.236Z,99.90
2022-07-25T10:58:52.132Z,99.90
2022-07-25T11:01:29.087Z,99.90
2022-07-25T11:04:06.848Z,99.90
2022-07-25T11:06:38.688Z,99.90
2022-07-25T11:09:22.645Z,99.90
2022-07-25T11:11:57.675Z,99.90
2022-07-25T11:14:32.584Z,99.90
2022-07-25T11:17:19.997Z,99.90
2022-07-25T11:20:00.235Z,99.90
2022-07-25T11:22:30.790Z,99.90
2022-07-25T11:25:06.444Z,99.90
2022-07-25T11:27:41.078Z,99.90
2022-07-25T11:30:19.188Z,99.80
2022-07-25T11:32:54.310Z,99.50
2022-07-25T11:35:31.088Z,98.30
2022-07-25T11:38:06.454Z,97.30
2022-07-25T11:40:35.525Z,96.90
2022-07-25T11:43:05.793Z,97.10
2022-07-25T11:45:40.390Z,96.60
2022-07-25T11:48:15.918Z,97.20
2022-07-25T11:50:49.467Z,97.40
2022-07-25T11:53:20.240Z,96.60
2022-07-25T11:55:49.016Z,97.10
2022-07-25T11:58:19.946Z,96.70
2022-07-25T12:00:50.478Z,96.60
2022-07-25T12:03:25.794Z,96.20
2022-07-25T12:06:15.505Z,96.30
2022-07-25T12:08:44.713Z,96.40
2022-07-25T12:11:24.772Z,96.30
2022-07-25T12:14:08.020Z,96.20
2022-07-25T12:16:37.727Z,97.00
2022-07-25T12:19:13.532Z,96.70
2022-07-25T12:21:47.194Z,96.50
2022-07-25T12:24:18.725Z,96.60
2022-07-25T12:26:52.645Z,96.70
2022-07-25T12:29:28.190Z,96.20
2022-07-25T12:32:00.620Z,96.30
2022-07-25T12:34:31.216Z,96.40
2022-07-25T12:37:02.707Z,96.40
2022-07-25T12:39:37.201Z,96.00
2022-07-25T12:42:06.214Z,96.80
2022-07-25T12:44:40.849Z,96.90
2022-07-25T12:47:09.802Z,97.60
2022-07-25T12:49:38.921Z,97.10
2022-07-25T12:52:16.945Z,97.80
2022-07-25T12:54:46.248Z,97.70
2022-07-25T12:57:15.515Z,98.10
2022-07-25T12:59:55.513Z,98.20
2022-07-25T13:02:32.735Z,98.80
2022-07-25T13:05:06.191Z,99.10
2022-07-25T13:07:36.874Z,98.80
2022-07-25T13:10:09.970Z,99.30
2022-07-25T13:12:41.419Z,99.10
2022-07-25T13:15:11.237Z,99.50
2022-07-25T13:17:41.589Z,99.20
2022-07-25T13:20:15.839Z,99.60
2022-07-25T13:22:50.189Z,99.50
2022-07-25T13:25:24.741Z,99.90
2022-07-25T13:27:54.671Z,99.90
2022-07-25T13:30:27.754Z,99.40
2022-07-25T13:32:58.316Z,99.50
2022-07-25T13:35:35.100Z,99.10
2022-07-25T13:38:14.141Z,99.40
2022-07-25T13:40:49.072Z,99.80
2022-07-25T13:43:19.923Z,99.90
2022-07-25T13:45:57.928Z,98.90
2022-07-25T13:48:33.476Z,99.30
2022-07-25T13:51:02.530Z,98.60
2022-07-25T13:53:36.300Z,99.30
2022-07-25T13:56:08.747Z,99.10
2022-07-25T13:58:37.723Z,98.90
2022-07-25T14:01:14.107Z,99.00
2022-07-25T14:03:45.408Z,98.70
2022-07-25T14:06:17.583Z,98.00
2022-07-25T14:08:52.718Z,97.10
2022-07-25T14:11:21.470Z,97.00
2022-07-25T14:13:53.501Z,97.00
2022-07-25T14:16:22.487Z,96.80
2022-07-25T14:18:52.788Z,96.60
2022-07-25T14:21:29.480Z,97.10
2022-07-25T14:24:00.589Z,97.50
2022-07-25T14:26:31.250Z,97.00
2022-07-25T14:29:06.518Z,97.20
2022-07-25T14:31:38.140Z,97.40
2022-07-25T14:34:09.102Z,97.80
2022-07-25T14:36:40.914Z,98.50
2022-07-25T14:39:13.749Z,98.70
2022-07-25T14:41:45.443Z,98.90
2022-07-25T14:44:14.161Z,99.10
2022-07-25T14:46:44.248Z,99.20
2022-07-25T14:49:22.946Z,99.30
2022-07-25T14:51:54.439Z,99.70
2022-07-25T14:54:28.542Z,99.90
2022-07-25T14:57:01.256Z,99.90
2022-07-25T14:59:30.167Z,99.70
2022-07-25T15:01:58.820Z,99.70
2022-07-25T15:04:27.614Z,99.90
2022-07-25T15:07:01.821Z,99.80
2022-07-25T15:09:32.696Z,99.80
2022-07-25T15:12:05.099Z,99.80
2022-07-25T15:14:35.919Z,99.90
2022-07-25T15:17:10.159Z,99.90
2022-07-25T15:19:39.515Z,99.90
2022-07-25T15:22:11.577Z,99.90
2022-07-25T15:25:21.369Z,99.90
2022-07-25T15:27:37.342Z,99.90
2022-07-25T15:30:12.317Z,99.90
2022-07-25T15:32:41.044Z,99.90
2022-07-25T15:35:10.774Z,99.90
2022-07-25T15:37:42.860Z,99.90
2022-07-25T15:40:19.496Z,99.90
2022-07-25T15:42:48.267Z,99.90
2022-07-25T15:45:33.853Z,99.90
2022-07-25T15:48:03.918Z,99.90
2022-07-25T15:50:32.971Z,99.90
2022-07-25T15:53:04.259Z,99.90
2022-07-25T15:55:38.927Z,99.90
2022-07-25T15:58:08.537Z,99.90
2022-07-25T16:00:43.108Z,99.90
2022-07-25T16:03:14.062Z,99.90
2022-07-25T16:05:44.816Z,99.90
2022-07-25T16:08:13.821Z,99.90
2022-07-25T16:11:02.918Z,99.90
2022-07-25T16:13:31.774Z,99.90
2022-07-25T16:16:01.393Z,99.90
2022-07-25T16:18:30.328Z,99.90
2022-07-25T16:21:00.445Z,99.90
2022-07-25T16:23:33.978Z,99.90
2022-07-25T16:26:13.761Z,99.90
2022-07-25T16:28:42.909Z,99.90
2022-07-25T16:31:14.880Z,99.90
2022-07-25T16:33:44.063Z,99.90
2022-07-25T16:36:13.272Z,99.90
2022-07-25T16:38:44.850Z,99.90
2022-07-25T16:41:20.926Z,99.80
2022-07-25T16:43:56.430Z,99.90
2022-07-25T16:46:31.383Z,99.50
2022-07-25T16:49:05.197Z,99.50
2022-07-25T16:51:37.237Z,99.10
2022-07-25T16:54:06.739Z,98.40
2022-07-25T16:56:40.367Z,98.50
2022-07-25T16:59:12.221Z,98.40
2022-07-25T17:01:49.511Z,98.10
2022-07-25T17:04:23.379Z,98.40
2022-07-25T17:07:01.543Z,98.60
2022-07-25T17:09:38.636Z,98.30
2022-07-25T17:12:17.869Z,98.40
2022-07-25T17:14:46.794Z,98.60
2022-07-25T17:17:18.462Z,98.60
2022-07-25T17:19:55.245Z,98.90
2022-07-25T17:22:29.705Z,98.80
2022-07-25T17:24:58.706Z,99.20
2022-07-25T17:27:36.720Z,98.90
2022-07-25T17:30:10.473Z,99.20
2022-07-25T17:32:39.737Z,99.20
2022-07-25T17:35:10.241Z,98.30
2022-07-25T17:37:43.543Z,98.40
2022-07-25T17:40:15.292Z,98.30
2022-07-25T17:42:47.874Z,98.00
2022-07-25T17:45:18.191Z,98.20
2022-07-25T17:47:47.642Z,98.10
2022-07-25T17:50:20.512Z,98.10
2022-07-25T17:52:49.542Z,98.10
2022-07-25T17:55:20.459Z,98.40
2022-07-25T17:57:54.828Z,97.90
2022-07-25T18:00:29.506Z,98.00
2022-07-25T18:02:58.474Z,98.20
2022-07-25T18:05:28.290Z,98.20
2022-07-25T18:07:58.601Z,98.30
2022-07-25T18:10:30.640Z,98.60
2022-07-25T18:13:22.888Z,98.50
2022-07-25T18:15:52.070Z,98.60
2022-07-25T18:18:22.948Z,98.80
2022-07-25T18:21:07.247Z,98.60
2022-07-25T18:23:36.131Z,98.80
2022-07-25T18:26:14.491Z,98.80
2022-07-25T18:28:44.789Z,98.30
2022-07-25T18:31:19.538Z,98.00
2022-07-25T18:33:48.434Z,98.10
2022-07-25T18:36:19.573Z,97.00
2022-07-25T18:38:55.470Z,96.50
2022-07-25T18:41:29.538Z,96.20
2022-07-25T18:44:02.823Z,96.30
2022-07-25T18:46:39.031Z,96.50
2022-07-25T18:49:12.951Z,96.50
2022-07-25T18:51:42.339Z,96.00
2022-07-25T18:54:13.995Z,96.00
2022-07-25T18:56:52.245Z,96.20
2022-07-25T18:59:24.336Z,96.10
2022-07-25T19:01:55.188Z,96.40
2022-07-25T19:04:24.256Z,96.30
2022-07-25T19:06:54.986Z,96.60
2022-07-25T19:09:23.898Z,96.60
2022-07-25T19:11:53.049Z,96.70
2022-07-25T19:14:28.123Z,96.90
2022-07-25T19:17:03.498Z,97.00
2022-07-25T19:19:33.643Z,97.10
2022-07-25T19:22:03.245Z,97.30
2022-07-25T19:24:32.816Z,97.40
2022-07-25T19:27:01.718Z,97.60
2022-07-25T19:29:45.722Z,97.80
2022-07-25T19:32:16.260Z,98.30
2022-07-25T19:34:48.635Z,98.50
2022-07-25T19:37:20.259Z,98.90
2022-07-25T19:39:58.003Z,99.00
2022-07-25T19:42:28.730Z,99.10
2022-07-25T19:45:00.854Z,99.20
2022-07-25T19:47:30.448Z,99.60
2022-07-25T19:50:01.829Z,99.90
2022-07-25T19:52:37.832Z,99.90
2022-07-25T19:55:14.791Z,99.80
2022-07-25T19:57:46.874Z,99.90
2022-07-25T20:00:24.968Z,99.90
2022-07-25T20:03:01.369Z,99.80
2022-07-25T20:05:39.032Z,99.60
2022-07-25T20:08:15.981Z,99.60
2022-07-25T20:10:45.117Z,99.90
2022-07-25T20:13:19.279Z,99.90
2022-07-25T20:15:49.569Z,99.40
2022-07-25T20:18:19.709Z,99.40
2022-07-25T20:20:54.610Z,99.00
2022-07-25T20:23:26.610Z,98.70
2022-07-25T20:25:57.287Z,99.10
2022-07-25T20:28:30.751Z,98.70
2022-07-25T20:31:02.015Z,98.60
2022-07-25T20:33:40.939Z,98.50
2022-07-25T20:36:16.382Z,98.50
2022-07-25T20:38:45.746Z,98.70
2022-07-25T20:41:20.179Z,98.90
2022-07-25T20:43:52.101Z,99.00
2022-07-25T20:46:26.013Z,99.50
2022-07-25T20:48:59.196Z,99.80
2022-07-25T20:51:29.746Z,99.90
2022-07-25T20:54:06.441Z,99.90
2022-07-25T20:56:40.982Z,99.90
2022-07-25T20:59:11.477Z,99.90
2022-07-25T21:01:46.369Z,99.90
2022-07-25T21:04:19.165Z,99.90
2022-07-25T21:06:48.313Z,99.90
2022-07-25T21:09:23.711Z,99.90
2022-07-25T21:11:57.301Z,99.90
2022-07-25T21:14:34.967Z,99.90
2022-07-25T21:17:11.009Z,99.90
2022-07-25T21:19:39.777Z,99.90
2022-07-25T21:22:13.290Z,99.90
2022-07-25T21:24:49.655Z,99.90
2022-07-25T21:27:24.651Z,99.90
2022-07-25T21:29:53.719Z,99.90
2022-07-25T21:32:27.905Z,99.90
2022-07-25T21:35:02.951Z,99.90
2022-07-25T21:37:33.962Z,99.90
2022-07-25T21:40:06.780Z,99.90
2022-07-25T21:42:44.224Z,99.90
2022-07-25T21:45:19.522Z,99.90
2022-07-25T21:48:02.937Z,99.90
2022-07-25T21:50:43.789Z,99.90
2022-07-25T21:53:15.693Z,99.90
2022-07-25T21:55:47.527Z,99.90
2022-07-25T21:58:16.810Z,99.90
2022-07-25T22:00:45.783Z,99.90
2022-07-25T22:03:34.866Z,99.90
2022-07-25T22:06:14.756Z,99.90
2022-07-25T22:08:50.818Z,99.90
2022-07-25T22:11:42.698Z,99.90
2022-07-25T22:14:18.889Z,99.90
2022-07-25T22:16:52.679Z,99.90
2022-07-25T22:19:23.233Z,99.90
2022-07-25T22:21:58.740Z,99.90
2022-07-25T22:24:30.486Z,99.90
2022-07-25T22:27:04.384Z,99.90
2022-07-25T22:29:36.041Z,99.90
2022-07-25T22:32:05.187Z,99.90
2022-07-25T22:34:36.106Z,99.90
2022-07-25T22:37:05.009Z,99.90
2022-07-25T22:39:36.929Z,99.90
2022-07-25T22:42:06.269Z,99.90
2022-07-25T22:44:35.132Z,99.90
2022-07-25T22:47:05.429Z,99.90
2022-07-25T22:49:35.671Z,99.90
2022-07-25T22:52:11.357Z,99.90
2022-07-25T22:54:40.240Z,99.90
2022-07-25T22:57:09.494Z,99.90
2022-07-25T22:59:41.843Z,99.90
2022-07-25T23:02:13.830Z,99.90
2022-07-25T23:04:47.057Z,99.90
2022-07-25T23:07:16.084Z,99.90
2022-07-25T23:09:45.106Z,99.90
2022-07-25T23:12:16.908Z,99.90
2022-07-25T23:14:45.846Z,99.90
2022-07-25T23:17:29.774Z,99.90
2022-07-25T23:20:07.626Z,99.90
2022-07-25T23:22:45.028Z,99.90
2022-07-25T23:25:14.749Z,99.90
2022-07-25T23:27:46.474Z,99.90
2022-07-25T23:30:18.527Z,99.90
2022-07-25T23:32:50.934Z,99.90
2022-07-25T23:35:24.197Z,99.90
2022-07-25T23:37:53.667Z,99.90
2022-07-25T23:40:24.811Z,99.90
2022-07-25T23:42:57.699Z,99.90
2022-07-25T23:45:27.760Z,99.90
2022-07-25T23:47:59.942Z,99.90
2022-07-25T23:50:31.391Z,99.90
2022-07-25T23:53:00.353Z,99.90
2022-07-25T23:55:29.305Z,99.90
2022-07-25T23:57:59.297Z,99.90
